Time;durP1;ratioP1;P1;durP2;ratioP2;P2;SDS_P1;SDS_P2;PMS_P1;PMS_P2;Temp;Humidity;BMP_temperature;BMP_pressure;BME280_temperature;BME280_humidity;BME280_pressure;Samples;Min_cycle;Max_cycle;Signal;HPM_P1;HPM_P2
2024/03/23 00:02:17;;;;;;;21.77;4.75;;;7.60;99.90;;;;;;4962436;28;20045;-79
2024/03/23 00:04:44;;;;;;;20.83;3.88;;;8.00;99.90;;;;;;4978883;28;20453;-79
2024/03/23 00:07:10;;;;;;;15.77;3.83;;;7.50;99.90;;;;;;4995798;28;20034;-78
2024/03/23 00:09:37;;;;;;;26.27;3.85;;;7.50;99.90;;;;;;4978928;28;20490;-79
2024/03/23 00:12:03;;;;;;;19.90;4.43;;;7.60;99.90;;;;;;4961497;28;20027;-79
2024/03/23 00:14:30;;;;;;;24.85;4.47;;;7.60;99.90;;;;;;4994621;28;20033;-77
2024/03/23 00:16:56;;;;;;;23.33;4.28;;;7.60;99.90;;;;;;4978086;28;20034;-78
2024/03/23 00:19:23;;;;;;;22.67;3.72;;;7.60;99.90;;;;;;4977998;28;20059;-78
2024/03/23 00:21:50;;;;;;;17.88;2.50;;;9.30;99.90;;;;;;4976546;28;20040;-77
2024/03/23 00:24:16;;;;;;;16.17;3.72;;;7.60;99.90;;;;;;4978180;28;20030;-79
2024/03/23 00:26:43;;;;;;;24.02;5.70;;;7.60;99.90;;;;;;4978297;28;20042;-78
2024/03/23 00:29:09;;;;;;;15.38;3.90;;;7.70;99.90;;;;;;4976922;28;20486;-79
2024/03/23 00:31:36;;;;;;;24.15;3.55;;;7.70;99.90;;;;;;4963963;28;20378;-78
2024/03/23 00:34:02;;;;;;;17.75;2.75;;;7.60;99.90;;;;;;4998758;28;20031;-79
2024/03/23 00:36:29;;;;;;;18.05;3.72;;;10.80;99.90;;;;;;4999243;28;20405;-79
2024/03/23 00:38:55;;;;;;;16.88;2.97;;;7.70;99.90;;;;;;4982927;28;20033;-78
2024/03/23 00:41:22;;;;;;;23.88;3.20;;;7.70;99.90;;;;;;5001357;28;20029;-78
2024/03/23 00:43:48;;;;;;;23.08;2.88;;;7.70;99.90;;;;;;5001000;28;20038;-79
2024/03/23 00:46:15;;;;;;;14.45;2.85;;;7.70;99.90;;;;;;4999366;28;20042;-79
2024/03/23 00:48:41;;;;;;;14.20;2.92;;;7.70;99.90;;;;;;4998988;28;20026;-78
2024/03/23 00:51:08;;;;;;;22.23;2.67;;;7.70;99.90;;;;;;5000295;28;20026;-77
2024/03/23 00:53:34;;;;;;;16.70;2.75;;;;;;;;;;4982348;28;20038;-79
2024/03/23 00:56:00;;;;;;;19.63;3.03;;;7.70;99.90;;;;;;4999827;28;20026;-76
2024/03/23 00:58:25;;;;;;;29.33;4.15;;;7.70;99.90;;;;;;4997913;28;20026;-78
2024/03/23 01:00:51;;;;;;;14.73;2.20;;;7.70;99.90;;;;;;4999333;28;20030;-78
2024/03/23 01:03:16;;;;;;;21.38;3.05;;;7.70;99.90;;;;;;4997470;28;20030;-77
2024/03/23 01:05:42;;;;;;;29.83;4.63;;;9.10;99.90;;;;;;4998860;28;20437;-78
2024/03/23 01:08:07;;;;;;;18.80;2.00;;;7.60;99.90;;;;;;5000153;28;20023;-78
2024/03/23 01:10:33;;;;;;;16.75;2.40;;;7.60;99.90;;;;;;4999282;28;20022;-80
2024/03/23 01:12:59;;;;;;;10.48;2.80;;;7.50;99.90;;;;;;5001556;28;20027;-79
2024/03/23 01:15:24;;;;;;;26.13;2.92;;;7.60;99.90;;;;;;4999629;28;20382;-78
2024/03/23 01:17:50;;;;;;;15.35;2.58;;;9.40;99.90;;;;;;5001658;28;20026;-79
2024/03/23 01:20:16;;;;;;;19.42;2.00;;;7.60;99.90;;;;;;5001701;28;20069;-79
2024/03/23 01:22:44;;;;;;;18.77;2.58;;;7.50;99.90;;;;;;5002302;28;20378;-79
2024/03/23 01:25:10;;;;;;;17.38;2.67;;;7.50;99.90;;;;;;4998969;28;20031;-79
2024/03/23 01:27:36;;;;;;;11.88;1.65;;;;;;;;;;4999499;28;20597;-79
2024/03/23 01:30:02;;;;;;;9.63;1.70;;;7.40;99.90;;;;;;4998292;28;20018;-79
2024/03/23 01:32:27;;;;;;;18.63;1.73;;;7.30;99.90;;;;;;4998976;28;20023;-79
2024/03/23 01:34:53;;;;;;;7.35;1.33;;;8.40;99.90;;;;;;4997474;28;20495;-79
2024/03/23 01:37:18;;;;;;;12.68;1.83;;;7.20;99.90;;;;;;4999676;28;20031;-79
2024/03/23 01:39:44;;;;;;;17.02;2.53;;;7.20;99.90;;;;;;4999283;28;20523;-79
2024/03/23 01:42:10;;;;;;;12.32;1.98;;;;;;;;;;4997859;28;20072;-79
2024/03/23 01:44:36;;;;;;;16.45;2.85;;;7.00;99.90;;;;;;4998326;28;20386;-80
2024/03/23 01:47:01;;;;;;;15.32;1.58;;;6.90;99.90;;;;;;4998895;28;20062;-80
2024/03/23 01:49:27;;;;;;;19.88;2.92;;;6.90;99.90;;;;;;5000453;28;20468;-79
2024/03/23 01:51:53;;;;;;;14.98;2.08;;;6.80;99.90;;;;;;4999602;28;20031;-79
2024/03/23 01:54:19;;;;;;;14.25;1.75;;;6.80;99.90;;;;;;4999392;28;20019;-79
2024/03/23 01:56:45;;;;;;;19.95;2.40;;;6.70;99.90;;;;;;5001801;28;20030;-81
2024/03/23 01:59:10;;;;;;;15.55;1.35;;;6.70;99.90;;;;;;5001623;28;20045;-81
2024/03/23 02:01:36;;;;;;;9.25;1.67;;;6.70;99.90;;;;;;5002488;28;20504;-79
2024/03/23 02:04:02;;;;;;;18.58;2.08;;;;;;;;;;5000632;28;20026;-79
2024/03/23 02:06:28;;;;;;;16.98;1.73;;;6.60;99.90;;;;;;4999151;28;20037;-79
2024/03/23 02:08:55;;;;;;;8.93;1.27;;;6.60;99.90;;;;;;4999414;28;20405;-79
2024/03/23 02:11:20;;;;;;;8.70;1.23;;;6.60;99.90;;;;;;4998915;28;20097;-79
2024/03/23 02:13:49;;;;;;;16.30;1.98;;;6.70;99.90;;;;;;5001340;28;20030;-81
2024/03/23 02:16:14;;;;;;;14.52;1.77;;;6.70;99.90;;;;;;5002685;28;20034;-81
2024/03/23 02:18:43;;;;;;;10.07;1.60;;;6.60;99.90;;;;;;5002435;28;20018;-81
2024/03/23 02:21:09;;;;;;;20.95;2.00;;;6.60;99.90;;;;;;5000092;28;20030;-80
2024/03/23 02:23:34;;;;;;;17.45;1.58;;;6.60;99.90;;;;;;5005760;28;20058;-79
2024/03/23 02:26:00;;;;;;;10.43;1.67;;;6.50;99.90;;;;;;5005056;28;20076;-79
2024/03/23 02:28:26;;;;;;;12.65;2.38;;;6.50;99.90;;;;;;5003787;28;20062;-79
2024/03/23 02:30:52;;;;;;;16.35;1.67;;;6.50;99.90;;;;;;5003190;28;20018;-80
2024/03/23 02:33:17;;;;;;;19.65;1.40;;;6.50;99.90;;;;;;5003798;28;20027;-79
2024/03/23 02:35:47;;;;;;;18.92;2.15;;;6.40;99.90;;;;;;5005271;28;20493;-79
2024/03/23 02:38:13;;;;;;;27.80;3.85;;;6.40;99.90;;;;;;4995059;28;20089;-79
2024/03/23 02:40:38;;;;;;;12.00;0.95;;;6.30;99.90;;;;;;4996904;28;20026;-78
2024/03/23 02:43:04;;;;;;;12.60;1.20;;;6.30;99.90;;;;;;5000488;28;20032;-80
2024/03/23 02:45:30;;;;;;;8.07;2.35;;;6.20;99.90;;;;;;5005722;28;20449;-81
2024/03/23 02:47:56;;;;;;;15.10;1.00;;;6.20;99.90;;;;;;5007042;28;20109;-80
2024/03/23 02:50:22;;;;;;;10.02;1.38;;;6.20;99.90;;;;;;5005782;28;20105;-81
2024/03/23 02:52:48;;;;;;;15.48;2.22;;;6.00;99.90;;;;;;5004223;28;20490;-80
2024/03/23 02:55:14;;;;;;;13.15;1.38;;;6.00;99.90;;;;;;5003727;28;20093;-81
2024/03/23 02:57:40;;;;;;;10.88;1.30;;;5.90;99.90;;;;;;5003528;28;20026;-78
2024/03/23 03:00:07;;;;;;;13.75;1.98;;;5.80;99.90;;;;;;5004855;28;20022;-80
2024/03/23 03:02:33;;;;;;;14.50;1.67;;;5.80;99.90;;;;;;4999943;28;20033;-80
2024/03/23 03:04:58;;;;;;;13.25;0.90;;;5.80;99.90;;;;;;4999456;28;20458;-80
2024/03/23 03:07:24;;;;;;;9.00;1.55;;;5.80;99.90;;;;;;4998520;28;20033;-79
2024/03/23 03:09:49;;;;;;;18.55;1.92;;;5.70;99.90;;;;;;5004992;28;20026;-80
2024/03/23 03:12:15;;;;;;;12.25;1.67;;;5.70;99.90;;;;;;5005116;28;20530;-80
2024/03/23 03:14:41;;;;;;;8.55;0.57;;;5.70;99.90;;;;;;5005166;28;20050;-78
2024/03/23 03:17:06;;;;;;;12.18;1.25;;;5.50;99.90;;;;;;4999974;28;20022;-79
2024/03/23 03:19:32;;;;;;;12.93;0.88;;;5.60;99.90;;;;;;5002273;28;20470;-79
2024/03/23 03:21:58;;;;;;;8.02;1.02;;;5.60;99.90;;;;;;4998680;28;20019;-78
2024/03/23 03:24:23;;;;;;;5.72;0.30;;;5.50;99.90;;;;;;4998277;28;20418;-78
2024/03/23 03:26:49;;;;;;;10.05;1.02;;;5.50;99.90;;;;;;4999539;28;20022;-79
2024/03/23 03:29:15;;;;;;;13.63;0.77;;;5.40;99.90;;;;;;5002152;28;20030;-80
2024/03/23 03:31:42;;;;;;;10.68;1.23;;;5.40;99.90;;;;;;5005464;28;20033;-81
2024/03/23 03:34:08;;;;;;;9.32;1.58;;;5.30;99.90;;;;;;5002979;28;20019;-79
2024/03/23 03:36:33;;;;;;;13.85;1.33;;;5.30;99.90;;;;;;5004596;28;20019;-79
2024/03/23 03:38:59;;;;;;;10.82;1.25;;;5.20;99.90;;;;;;5001214;28;20034;-79
2024/03/23 03:41:24;;;;;;;9.57;0.28;;;5.20;99.90;;;;;;4993999;28;20023;-79
2024/03/23 03:43:50;;;;;;;14.27;0.95;;;5.20;99.90;;;;;;4996839;28;20077;-78
2024/03/23 03:46:16;;;;;;;8.35;0.55;;;5.20;99.90;;;;;;4995702;28;20478;-78
2024/03/23 03:48:41;;;;;;;9.60;0.63;;;5.20;99.90;;;;;;4995668;28;20050;-78
2024/03/23 03:51:07;;;;;;;14.60;0.80;;;5.10;99.90;;;;;;4995114;28;20053;-78
2024/03/23 03:53:32;;;;;;;9.63;0.85;;;5.10;99.90;;;;;;4994600;28;20022;-78
2024/03/23 03:56:02;;;;;;;12.43;0.50;;;5.10;99.90;;;;;;4997988;28;20113;-78
2024/03/23 03:58:27;;;;;;;13.70;0.55;;;5.10;99.90;;;;;;4997714;28;20026;-78
2024/03/23 04:00:53;;;;;;;6.72;0.70;;;5.10;99.90;;;;;;4996506;28;20022;-79
2024/03/23 04:03:19;;;;;;;9.10;0.57;;;5.00;99.90;;;;;;4997965;28;20113;-78
2024/03/23 04:05:51;;;;;;;8.63;0.50;;;5.00;99.90;;;;;;5000499;28;20109;-79
2024/03/23 04:08:17;;;;;;;9.90;0.45;;;5.00;99.90;;;;;;5004739;28;20061;-79
2024/03/23 04:10:42;;;;;;;8.50;0.63;;;5.00;99.90;;;;;;4997160;28;20022;-78
2024/03/23 04:13:08;;;;;;;12.68;0.75;;;4.90;99.90;;;;;;4994858;28;20038;-78
2024/03/23 04:15:33;;;;;;;11.40;1.38;;;4.90;99.90;;;;;;4997078;28;20060;-79
2024/03/23 04:17:59;;;;;;;12.00;1.15;;;6.00;99.90;;;;;;4993297;28;20062;-78
2024/03/23 04:20:24;;;;;;;10.50;0.70;;;4.80;99.90;;;;;;4994895;28;20014;-78
2024/03/23 04:22:50;;;;;;;8.95;0.57;;;4.80;99.90;;;;;;4994865;28;20023;-78
2024/03/23 04:25:16;;;;;;;9.88;0.88;;;4.80;99.90;;;;;;4993909;28;20040;-78
2024/03/23 04:27:42;;;;;;;9.38;0.80;;;4.80;99.90;;;;;;4994054;28;20389;-78
2024/03/23 04:30:11;;;;;;;11.13;0.75;;;4.80;99.90;;;;;;5001492;28;20019;-78
2024/03/23 04:32:40;;;;;;;4.03;0.70;;;;;;;;;;5002939;28;20022;-78
2024/03/23 04:35:10;;;;;;;5.40;0.40;;;4.70;99.90;;;;;;4998722;28;20165;-79
2024/03/23 04:37:37;;;;;;;8.48;0.47;;;4.70;99.90;;;;;;4995884;28;20042;-79
2024/03/23 04:40:03;;;;;;;15.15;0.70;;;4.70;99.90;;;;;;4995222;28;20061;-78
2024/03/23 04:42:29;;;;;;;7.15;0.38;;;4.80;99.90;;;;;;4994875;28;20040;-79
2024/03/23 04:44:54;;;;;;;11.60;0.75;;;4.80;99.90;;;;;;4997933;28;20086;-80
2024/03/23 04:47:20;;;;;;;10.23;0.40;;;4.80;99.90;;;;;;5004452;28;20367;-81
2024/03/23 04:49:46;;;;;;;5.55;0.10;;;4.80;99.90;;;;;;5004762;28;20026;-80
2024/03/23 04:52:12;;;;;;;5.93;0.55;;;4.80;99.90;;;;;;5001833;28;20050;-79
2024/03/23 04:54:40;;;;;;;10.05;0.10;;;4.80;99.90;;;;;;5001635;28;20371;-79
2024/03/23 04:57:06;;;;;;;7.97;0.83;;;4.80;99.90;;;;;;4999351;28;20158;-79
2024/03/23 04:59:32;;;;;;;4.93;0.30;;;4.80;99.90;;;;;;5003337;28;20018;-79
2024/03/23 05:01:57;;;;;;;4.78;0.75;;;4.70;99.90;;;;;;5004272;28;20082;-80
2024/03/23 05:04:23;;;;;;;5.43;0.20;;;4.60;99.90;;;;;;5003957;28;20018;-81
2024/03/23 05:06:48;;;;;;;6.97;0.30;;;7.50;99.90;;;;;;5002143;28;20065;-80
2024/03/23 05:09:14;;;;;;;10.75;0.52;;;4.70;99.90;;;;;;5003894;28;20018;-80
2024/03/23 05:11:41;;;;;;;3.63;0.10;;;;;;;;;;5003394;28;20022;-80
2024/03/23 05:14:07;;;;;;;7.53;0.20;;;4.70;99.90;;;;;;5004744;28;20065;-80
2024/03/23 05:16:33;;;;;;;7.55;0.13;;;4.70;99.90;;;;;;5004140;28;20022;-79
2024/03/23 05:18:59;;;;;;;9.20;0.80;;;4.70;99.90;;;;;;5007762;28;20036;-81
2024/03/23 05:21:24;;;;;;;6.32;0.40;;;4.70;99.90;;;;;;5007366;28;20046;-80
2024/03/23 05:23:51;;;;;;;4.78;0.82;;;4.70;99.90;;;;;;5008112;28;20116;-80
2024/03/23 05:26:17;;;;;;;6.05;0.45;;;7.10;99.90;;;;;;5008386;28;20023;-80
2024/03/23 05:28:42;;;;;;;11.15;0.47;;;4.70;99.90;;;;;;5006188;28;20028;-79
2024/03/23 05:31:08;;;;;;;3.83;0.28;;;4.70;99.90;;;;;;5005867;28;20022;-78
2024/03/23 05:33:35;;;;;;;10.38;0.65;;;4.70;99.90;;;;;;5001907;28;20065;-79
2024/03/23 05:36:02;;;;;;;6.10;0.45;;;4.70;99.90;;;;;;5008269;28;20029;-82
2024/03/23 05:38:28;;;;;;;4.25;0.15;;;4.80;99.90;;;;;;5008076;28;20049;-83
2024/03/23 05:40:57;;;;;;;1.50;0.38;;;4.90;99.90;;;;;;5004446;28;20060;-78
2024/03/23 05:43:23;;;;;;;6.60;0.47;;;4.90;99.90;;;;;;5000921;28;20033;-81
2024/03/23 05:45:55;;;;;;;4.70;0.22;;;5.00;99.90;;;;;;5001195;28;20022;-79
2024/03/23 05:48:21;;;;;;;10.32;0.47;;;5.10;99.90;;;;;;5001008;28;20026;-80
2024/03/23 05:50:51;;;;;;;11.38;0.35;;;5.10;99.90;;;;;;5003545;28;20438;-79
2024/03/23 05:53:17;;;;;;;7.47;0.17;;;5.20;99.90;;;;;;5004356;28;20097;-79
2024/03/23 05:55:43;;;;;;;8.95;0.50;;;5.10;99.90;;;;;;5007188;28;20562;-79
2024/03/23 05:58:09;;;;;;;5.18;0.40;;;5.10;99.90;;;;;;5004386;28;20018;-80
2024/03/23 06:00:34;;;;;;;4.78;0.45;;;5.10;99.90;;;;;;5001555;28;20007;-81
2024/03/23 06:03:00;;;;;;;17.02;1.27;;;5.20;99.90;;;;;;4999339;28;20109;-80
2024/03/23 06:05:27;;;;;;;4.18;0.63;;;5.20;99.90;;;;;;4999472;28;20520;-80
2024/03/23 06:07:52;;;;;;;5.38;0.40;;;5.20;99.90;;;;;;4999702;28;20017;-81
2024/03/23 06:10:18;;;;;;;7.32;0.88;;;5.20;99.90;;;;;;5001852;28;20023;-80
2024/03/23 06:12:46;;;;;;;3.63;0.10;;;5.10;99.90;;;;;;4997574;28;20402;-80
2024/03/23 06:15:12;;;;;;;8.98;0.40;;;5.10;99.90;;;;;;4999010;28;20018;-80
2024/03/23 06:17:38;;;;;;;6.03;0.05;;;5.20;99.90;;;;;;4998092;28;20065;-80
2024/03/23 06:20:06;;;;;;;9.38;0.75;;;5.20;99.90;;;;;;4999818;28;20065;-80
2024/03/23 06:22:32;;;;;;;7.68;0.47;;;5.20;99.90;;;;;;4999441;28;20018;-81
2024/03/23 06:24:57;;;;;;;7.70;0.45;;;5.20;99.90;;;;;;4998765;28;20079;-80
2024/03/23 06:27:23;;;;;;;2.97;0.25;;;5.20;99.90;;;;;;5000396;28;20026;-80
2024/03/23 06:29:48;;;;;;;8.07;0.20;;;5.30;99.90;;;;;;5000035;28;20031;-81
2024/03/23 06:32:14;;;;;;;9.23;0.38;;;5.50;99.90;;;;;;4999781;28;20058;-81
2024/03/23 06:34:43;;;;;;;4.50;0.38;;;5.50;99.90;;;;;;5000949;28;20054;-80
2024/03/23 06:37:09;;;;;;;8.63;1.05;;;5.50;99.90;;;;;;5001535;28;20054;-80
2024/03/23 06:39:36;;;;;;;9.85;0.82;;;5.60;99.90;;;;;;5002530;28;20090;-81
2024/03/23 06:42:02;;;;;;;7.53;0.35;;;5.60;99.90;;;;;;5001133;28;20109;-81
2024/03/23 06:44:28;;;;;;;7.90;0.30;;;5.70;99.90;;;;;;4999999;28;20052;-81
2024/03/23 06:46:53;;;;;;;6.60;0.68;;;5.70;99.90;;;;;;5001153;28;20027;-80
2024/03/23 06:49:19;;;;;;;4.63;0.10;;;5.80;99.90;;;;;;5001184;28;20026;-81
2024/03/23 06:51:45;;;;;;;7.60;0.15;;;5.90;99.90;;;;;;5002450;28;20033;-80
2024/03/23 06:54:11;;;;;;;10.27;0.65;;;5.90;99.90;;;;;;5001948;28;20018;-80
2024/03/23 06:56:36;;;;;;;9.88;0.70;;;6.20;99.90;;;;;;5002543;28;20046;-81
2024/03/23 06:59:02;;;;;;;5.38;0.30;;;6.20;99.90;;;;;;5006450;28;20105;-81
2024/03/23 07:01:28;;;;;;;6.85;0.40;;;6.50;99.90;;;;;;5005843;28;20030;-80
2024/03/23 07:03:54;;;;;;;6.13;0.32;;;8.10;99.90;;;;;;5003165;28;20026;-80
2024/03/23 07:06:20;;;;;;;6.30;0.43;;;;;;;;;;5005437;28;20033;-80
2024/03/23 07:08:46;;;;;;;9.10;0.57;;;6.90;99.90;;;;;;5005155;28;20030;-81
2024/03/23 07:11:12;;;;;;;9.73;0.68;;;7.00;99.90;;;;;;5005011;28;20026;-81
2024/03/23 07:13:39;;;;;;;7.38;0.57;;;7.00;99.90;;;;;;5004440;28;20026;-80
2024/03/23 07:16:04;;;;;;;6.07;0.40;;;7.20;99.90;;;;;;4997762;28;20019;-81
2024/03/23 07:18:30;;;;;;;8.05;0.30;;;7.40;99.90;;;;;;4999160;28;20034;-81
2024/03/23 07:20:56;;;;;;;6.55;0.73;;;7.40;99.90;;;;;;5000313;28;20036;-81
2024/03/23 07:23:22;;;;;;;9.57;1.35;;;7.40;99.90;;;;;;5001980;28;20018;-81
2024/03/23 07:25:58;;;;;;;9.60;0.77;;;7.40;99.90;;;;;;5003418;28;20090;-81
2024/03/23 07:28:23;;;;;;;7.63;0.17;;;7.40;99.90;;;;;;5005154;28;20023;-80
2024/03/23 07:31:04;;;;;;;5.82;0.22;;;7.40;99.90;;;;;;5005242;28;20026;-81
2024/03/23 07:33:29;;;;;;;5.03;0.20;;;7.50;99.90;;;;;;5004811;28;20037;-81
2024/03/23 07:35:55;;;;;;;2.20;0.10;;;7.50;99.90;;;;;;5005110;28;20027;-81
2024/03/23 07:38:21;;;;;;;4.85;0.60;;;7.50;99.90;;;;;;5007045;28;20035;-80
2024/03/23 07:40:49;;;;;;;17.67;0.65;;;7.70;99.90;;;;;;5004227;28;20062;-80
2024/03/23 07:43:15;;;;;;;6.60;0.77;;;7.70;99.90;;;;;;5005986;28;20022;-80
2024/03/23 07:45:41;;;;;;;8.82;0.22;;;7.90;99.90;;;;;;5002886;28;20065;-79
2024/03/23 07:48:06;;;;;;;4.68;0.57;;;8.00;99.90;;;;;;5000909;28;20457;-79
2024/03/23 07:50:32;;;;;;;3.47;0.20;;;8.10;99.90;;;;;;4999928;28;20030;-79
2024/03/23 07:52:57;;;;;;;7.95;0.55;;;8.20;99.90;;;;;;5001214;28;20018;-82
2024/03/23 07:55:23;;;;;;;9.30;0.85;;;8.20;99.90;;;;;;5000374;28;20038;-83
2024/03/23 07:57:51;;;;;;;5.47;0.20;;;8.20;99.90;;;;;;5000996;28;20090;-81
2024/03/23 08:00:17;;;;;;;4.33;0.07;;;8.20;99.90;;;;;;5007997;28;20117;-81
2024/03/23 08:02:43;;;;;;;2.58;0.13;;;8.30;99.90;;;;;;5009372;28;20041;-82
2024/03/23 08:05:11;;;;;;;5.78;0.38;;;8.30;99.90;;;;;;5005329;28;20041;-80
2024/03/23 08:07:37;;;;;;;7.80;0.25;;;10.00;99.90;;;;;;5002194;28;20038;-80
2024/03/23 08:10:03;;;;;;;5.97;0.52;;;9.50;99.90;;;;;;5003492;28;20029;-80
2024/03/23 08:12:29;;;;;;;7.85;0.88;;;8.30;99.90;;;;;;5002485;28;20489;-80
2024/03/23 08:14:54;;;;;;;5.18;0.20;;;8.30;99.90;;;;;;4999863;28;20130;-80
2024/03/23 08:17:20;;;;;;;6.07;0.20;;;8.30;99.90;;;;;;4998741;28;20078;-80
2024/03/23 08:19:45;;;;;;;5.25;0.45;;;8.40;99.90;;;;;;5011542;28;20029;-81
2024/03/23 08:22:11;;;;;;;11.25;0.20;;;8.50;99.90;;;;;;5011904;28;20517;-82
2024/03/23 08:24:36;;;;;;;3.95;0.25;;;8.50;99.90;;;;;;5000068;28;20018;-81
2024/03/23 08:27:04;;;;;;;6.03;0.38;;;8.60;99.90;;;;;;5000846;28;20536;-80
2024/03/23 08:29:30;;;;;;;5.03;0.08;;;8.50;99.90;;;;;;5005822;28;20501;-83
2024/03/23 08:31:56;;;;;;;2.80;0.00;;;;;;;;;;5005950;28;20041;-80
2024/03/23 08:34:22;;;;;;;8.25;0.80;;;8.40;99.90;;;;;;5023427;28;20057;-81
2024/03/23 08:36:47;;;;;;;12.50;0.30;;;8.60;99.90;;;;;;5026001;28;20010;-80
2024/03/23 08:39:14;;;;;;;4.63;0.20;;;8.80;99.90;;;;;;5021673;28;20048;-82
2024/03/23 08:41:39;;;;;;;6.18;0.57;;;8.90;99.90;;;;;;5021203;28;20084;-83
2024/03/23 08:44:05;;;;;;;6.88;0.30;;;8.80;99.90;;;;;;5020770;28;20097;-82
2024/03/23 08:46:31;;;;;;;8.25;0.47;;;8.70;99.90;;;;;;5024235;28;20049;-83
2024/03/23 08:48:57;;;;;;;3.50;0.00;;;8.60;99.90;;;;;;5023048;28;20030;-84
2024/03/23 08:51:23;;;;;;;6.60;0.60;;;8.70;99.90;;;;;;5023348;28;20010;-83
2024/03/23 08:53:48;;;;;;;3.58;0.03;;;8.90;99.90;;;;;;5026961;28;20470;-79
2024/03/23 08:56:14;;;;;;;5.38;0.73;;;8.90;99.90;;;;;;5026472;28;20029;-77
2024/03/23 08:58:39;;;;;;;3.90;0.57;;;10.60;99.90;;;;;;5026885;28;20505;-81
2024/03/23 09:01:10;;;;;;;8.27;0.50;;;9.50;99.90;;;;;;5027343;28;20034;-79
2024/03/23 09:03:36;;;;;;;3.67;0.20;;;9.60;99.90;;;;;;5027380;28;20026;-81
2024/03/23 09:06:09;;;;;;;3.97;0.52;;;9.60;99.90;;;;;;5024703;28;20045;-80
2024/03/23 09:08:36;;;;;;;3.10;0.43;;;9.40;99.90;;;;;;5012883;28;20391;-79
2024/03/23 09:11:12;;;;;;;7.82;0.17;;;9.00;99.90;;;;;;5005277;28;20119;-82
2024/03/23 09:13:39;;;;;;;6.20;0.00;;;8.70;99.90;;;;;;5004983;28;20041;-81
2024/03/23 09:16:05;;;;;;;5.32;0.25;;;8.40;99.90;;;;;;5004709;28;20117;-81
2024/03/23 09:18:36;;;;;;;5.53;0.10;;;8.40;99.90;;;;;;5000349;28;20034;-79
2024/03/23 09:21:04;;;;;;;9.80;0.32;;;8.30;99.90;;;;;;5002992;28;20053;-80
2024/03/23 09:23:29;;;;;;;5.80;0.10;;;8.30;99.90;;;;;;4999681;28;20027;-80
2024/03/23 09:25:55;;;;;;;4.30;0.52;;;8.60;99.90;;;;;;5002996;28;20034;-80
2024/03/23 09:28:22;;;;;;;4.15;0.30;;;8.70;99.90;;;;;;5000467;28;20030;-80
2024/03/23 09:30:47;;;;;;;5.70;0.40;;;8.70;99.90;;;;;;4999846;28;20029;-80
2024/03/23 09:33:13;;;;;;;8.63;1.02;;;8.60;99.90;;;;;;5001031;28;20026;-80
2024/03/23 09:35:40;;;;;;;5.28;0.40;;;8.10;99.90;;;;;;5002164;28;20486;-80
2024/03/23 09:38:07;;;;;;;4.20;0.00;;;;;;;;;;4998999;28;20542;-79
2024/03/23 09:40:33;;;;;;;7.50;0.40;;;7.60;99.90;;;;;;5004590;28;20030;-79
2024/03/23 09:42:59;;;;;;;6.72;0.38;;;7.50;99.90;;;;;;5000545;28;20101;-80
2024/03/23 09:45:29;;;;;;;3.85;0.40;;;7.70;99.90;;;;;;4999793;28;20068;-79
2024/03/23 09:47:57;;;;;;;5.53;0.40;;;7.80;99.90;;;;;;5003346;28;20363;-79
2024/03/23 09:50:23;;;;;;;2.58;0.10;;;7.90;99.90;;;;;;5000299;28;20049;-81
2024/03/23 09:52:50;;;;;;;2.58;0.10;;;8.30;99.90;;;;;;5001523;28;20018;-78
2024/03/23 09:55:15;;;;;;;13.63;0.55;;;8.40;99.90;;;;;;5002766;28;20018;-81
2024/03/23 09:57:42;;;;;;;7.70;0.20;;;;;;;;;;5002491;28;20026;-81
2024/03/23 10:00:08;;;;;;;7.20;0.55;;;8.90;99.90;;;;;;5021351;28;20030;-80
2024/03/23 10:02:35;;;;;;;6.70;0.57;;;9.30;99.90;;;;;;5019255;28;20026;-80
2024/03/23 10:05:01;;;;;;;12.68;1.48;;;9.30;99.90;;;;;;5018411;28;20481;-80
2024/03/23 10:07:30;;;;;;;5.78;0.10;;;9.00;99.90;;;;;;5018934;28;20489;-80
2024/03/23 10:09:56;;;;;;;6.15;0.55;;;8.70;99.90;;;;;;5001225;28;20034;-80
2024/03/23 10:12:23;;;;;;;7.93;0.10;;;8.50;99.90;;;;;;4998860;28;20058;-79
2024/03/23 10:14:49;;;;;;;4.25;0.08;;;8.40;99.90;;;;;;5001948;28;20026;-80
2024/03/23 10:17:19;;;;;;;7.03;1.40;;;8.50;99.90;;;;;;4999626;28;20023;-80
2024/03/23 10:19:47;;;;;;;6.63;0.77;;;8.90;99.90;;;;;;5001466;28;20022;-81
2024/03/23 10:22:15;;;;;;;3.55;0.28;;;8.90;99.90;;;;;;5000101;28;20406;-81
2024/03/23 10:24:42;;;;;;;6.78;0.00;;;9.00;99.90;;;;;;5001606;28;20386;-81
2024/03/23 10:27:08;;;;;;;5.15;0.00;;;;;;;;;;5014084;28;20072;-81
2024/03/23 10:29:34;;;;;;;8.93;0.20;;;9.60;99.90;;;;;;5018918;28;20429;-81
2024/03/23 10:32:13;;;;;;;2.65;0.10;;;9.80;99.90;;;;;;5020573;28;20029;-81
2024/03/23 10:34:39;;;;;;;6.60;0.40;;;9.80;99.90;;;;;;5018560;28;20026;-81
2024/03/23 10:37:05;;;;;;;4.30;0.03;;;9.90;99.90;;;;;;5018796;28;20359;-80
2024/03/23 10:39:34;;;;;;;4.00;0.30;;;9.10;99.90;;;;;;5018370;28;20539;-79
2024/03/23 10:42:03;;;;;;;6.30;0.22;;;8.80;99.90;;;;;;5018245;28;20034;-79
2024/03/23 10:44:30;;;;;;;4.53;0.30;;;8.60;99.90;;;;;;5017775;28;20029;-79
2024/03/23 10:46:59;;;;;;;1.25;0.10;;;8.40;99.90;;;;;;5021684;28;20026;-80
2024/03/23 10:49:26;;;;;;;2.75;0.00;;;7.90;99.90;;;;;;5021775;28;20053;-79
2024/03/23 10:51:52;;;;;;;1.70;0.22;;;8.30;99.90;;;;;;5021402;28;20044;-80
2024/03/23 10:54:19;;;;;;;7.78;0.00;;;8.50;99.90;;;;;;5022426;28;20476;-81
2024/03/23 10:56:48;;;;;;;2.53;0.08;;;8.90;99.90;;;;;;5021183;28;20084;-81
2024/03/23 10:59:14;;;;;;;3.40;0.20;;;9.20;99.90;;;;;;5019836;28;20548;-81
2024/03/23 11:01:57;;;;;;;3.15;0.15;;;9.90;99.90;;;;;;5016097;28;20405;-81
2024/03/23 11:04:35;;;;;;;8.75;0.43;;;10.30;99.90;;;;;;5017950;28;20026;-82
2024/03/23 11:07:24;;;;;;;4.30;0.10;;;10.60;99.90;;;;;;5018046;28;20450;-81
2024/03/23 11:09:52;;;;;;;4.07;0.43;;;10.70;99.90;;;;;;5011614;28;20120;-81
2024/03/23 11:12:23;;;;;;;5.45;0.10;;;10.20;99.90;;;;;;5015798;28;20054;-81
2024/03/23 11:14:51;;;;;;;5.47;0.00;;;10.00;99.90;;;;;;5019825;28;20068;-80
2024/03/23 11:17:25;;;;;;;3.97;0.00;;;9.60;99.90;;;;;;5019449;28;20026;-81
2024/03/23 11:20:05;;;;;;;8.85;0.00;;;9.50;99.90;;;;;;5021274;28;20029;-80
2024/03/23 11:22:51;;;;;;;7.93;0.75;;;9.80;99.90;;;;;;4999915;28;20030;-80
2024/03/23 11:25:26;;;;;;;7.50;0.77;;;10.10;99.90;;;;;;5000878;28;20087;-80
2024/03/23 11:27:53;;;;;;;4.90;0.10;;;9.90;99.90;;;;;;4999119;28;20030;-80
2024/03/23 11:30:29;;;;;;;4.20;0.28;;;9.90;99.90;;;;;;4999135;28;20023;-81
2024/03/23 11:32:55;;;;;;;7.82;0.52;;;10.00;99.90;;;;;;5000013;28;20061;-81
2024/03/23 11:35:27;;;;;;;2.92;0.73;;;11.50;99.90;;;;;;4999124;28;20018;-81
2024/03/23 11:38:13;;;;;;;8.80;0.17;;;10.40;99.90;;;;;;4999249;28;20034;-80
2024/03/23 11:40:41;;;;;;;5.35;0.15;;;10.50;99.90;;;;;;4998788;28;20081;-80
2024/03/23 11:43:08;;;;;;;3.70;0.22;;;10.30;99.90;;;;;;4998620;28;20026;-80
2024/03/23 11:45:37;;;;;;;6.25;0.20;;;10.30;99.90;;;;;;4998673;28;20030;-80
2024/03/23 11:48:06;;;;;;;8.37;1.00;;;10.30;99.90;;;;;;4998447;28;20113;-80
2024/03/23 11:50:33;;;;;;;10.32;1.17;;;10.30;99.90;;;;;;4998122;28;20274;-80
2024/03/23 11:53:13;;;;;;;2.65;0.25;;;10.20;99.90;;;;;;4999055;28;20026;-80
2024/03/23 11:55:49;;;;;;;7.85;0.40;;;10.00;99.90;;;;;;4997727;28;20029;-80
2024/03/23 11:58:17;;;;;;;9.93;1.42;;;10.00;99.90;;;;;;4997622;28;20072;-80
2024/03/23 12:00:50;;;;;;;4.18;0.20;;;9.70;99.90;;;;;;5002166;28;20030;-80
2024/03/23 12:03:16;;;;;;;6.47;0.10;;;9.60;99.90;;;;;;5001097;28;20072;-80
2024/03/23 12:05:41;;;;;;;8.30;0.30;;;9.90;99.90;;;;;;4998556;28;20026;-80
2024/03/23 12:08:24;;;;;;;4.90;0.15;;;10.30;99.90;;;;;;4997667;28;20035;-80
2024/03/23 12:11:06;;;;;;;6.60;0.10;;;11.00;99.90;;;;;;5007110;28;20133;-80
2024/03/23 12:13:32;;;;;;;7.75;0.20;;;11.20;99.90;;;;;;5006299;28;20034;-80
2024/03/23 12:16:22;;;;;;;2.13;0.05;;;11.40;99.90;;;;;;5004533;28;20027;-79
2024/03/23 12:18:50;;;;;;;5.63;0.05;;;10.90;99.90;;;;;;5007977;28;20035;-79
2024/03/23 12:21:17;;;;;;;4.10;0.17;;;10.30;99.90;;;;;;5000217;28;20070;-79
2024/03/23 12:23:44;;;;;;;6.63;0.80;;;10.20;99.90;;;;;;4997150;28;20019;-80
2024/03/23 12:26:13;;;;;;;3.47;0.47;;;10.00;99.90;;;;;;5001706;28;20072;-80
2024/03/23 12:28:39;;;;;;;7.90;0.38;;;10.00;99.90;;;;;;5019386;28;20409;-79
2024/03/23 12:31:08;;;;;;;5.00;0.30;;;;;;;;;;5019631;28;20026;-79
2024/03/23 12:33:34;;;;;;;9.15;0.30;;;10.60;99.90;;;;;;5018964;28;20450;-80
2024/03/23 12:35:59;;;;;;;2.70;0.30;;;10.80;99.90;;;;;;5018706;28;20025;-79
2024/03/23 12:38:25;;;;;;;4.97;0.10;;;10.90;99.90;;;;;;5019308;28;20037;-79
2024/03/23 12:40:50;;;;;;;8.52;0.47;;;11.10;99.90;;;;;;5018867;28;20462;-79
2024/03/23 12:43:17;;;;;;;8.27;0.50;;;11.10;99.90;;;;;;5020145;28;20053;-79
2024/03/23 12:45:49;;;;;;;7.40;0.10;;;11.30;99.90;;;;;;5018295;28;20017;-79
2024/03/23 12:48:15;;;;;;;5.72;0.32;;;11.50;99.90;;;;;;5004525;28;20034;-79
2024/03/23 12:50:41;;;;;;;6.47;0.43;;;11.10;99.90;;;;;;4998697;28;20039;-76
2024/03/23 12:53:07;;;;;;;6.07;0.00;;;11.00;99.90;;;;;;4996513;28;20053;-76
2024/03/23 12:55:34;;;;;;;1.65;0.00;;;10.80;99.90;;;;;;4997504;28;20018;-76